Mount Moriah, Missouri
Current Conditions -  °F | °C
As of 2:53 PM on Wednesday 17 Dec 2014 (Local Time) from KLWD Reporting Station
Few Clouds Few Clouds  
Wind Chill: 27°   Ceiling: Unl
Heat Index: 27°   Visibility: 10mi
Dew Point: 16°   Wind: 3mph
Humidity: 63%   Direction: 250°WSW
Pressure: 30.26"   Gusts: NA
Location:  40.33°N, 93.8°W
Report Text: KLWD 172053Z AUTO 25003KT 10SM FEW095 M03/M09 A3026 RMK AO2 SLP265 T10281089 56012
Loading
Personal Weather Stations






























Interactive Weather Map New forecast layout! Learn more

10-Day Weather Forecast

Advertisements
Track Severe Weather on mobile